createdAt,value
2018-11-27T00:02:31.983Z,-0.15
2018-11-27T00:05:37.147Z,-0.18
2018-11-27T00:08:41.306Z,-0.27
2018-11-27T00:11:45.254Z,-0.24
2018-11-27T00:14:49.223Z,-0.22
2018-11-27T00:17:53.191Z,-0.23
2018-11-27T00:20:57.149Z,-0.19
2018-11-27T00:24:01.121Z,-0.21
2018-11-27T00:27:05.086Z,-0.24
2018-11-27T00:30:10.702Z,-0.25
2018-11-27T00:33:14.684Z,-0.26
2018-11-27T00:36:18.827Z,-0.22
2018-11-27T00:39:22.790Z,-0.31
2018-11-27T00:42:26.951Z,-0.35
2018-11-27T00:45:30.920Z,-0.37
2018-11-27T00:48:35.071Z,-0.38
2018-11-27T00:51:39.043Z,-0.38
2018-11-27T00:54:43.191Z,-0.34
2018-11-27T00:57:48.462Z,-0.34
2018-11-27T01:00:52.431Z,-0.35
2018-11-27T01:03:56.402Z,-0.37
2018-11-27T01:07:00.370Z,-0.39
2018-11-27T01:10:06.282Z,-0.33
2018-11-27T01:13:10.247Z,-0.34
2018-11-27T01:16:14.206Z,-0.28
2018-11-27T01:19:18.178Z,-0.28
2018-11-27T01:22:22.149Z,-0.31
2018-11-27T01:25:26.128Z,-0.31
2018-11-27T01:28:30.098Z,-0.29
2018-11-27T01:31:34.236Z,-0.28
2018-11-27T01:34:38.390Z,-0.21
2018-11-27T01:37:42.551Z,-0.25
2018-11-27T01:40:46.526Z,-0.31
2018-11-27T01:43:50.483Z,-0.31
2018-11-27T01:46:54.641Z,-0.32
2018-11-27T01:49:58.623Z,-0.33
2018-11-27T01:53:02.605Z,-0.28
2018-11-27T01:56:06.657Z,-0.28
2018-11-27T01:59:10.615Z,-0.31
2018-11-27T02:02:14.586Z,-0.32
2018-11-27T02:05:18.918Z,-0.27
2018-11-27T02:08:22.891Z,-0.28
2018-11-27T02:11:26.873Z,-0.24
2018-11-27T02:14:30.847Z,-0.23
2018-11-27T02:17:34.819Z,-0.29
2018-11-27T02:20:38.790Z,-0.24
2018-11-27T02:23:42.757Z,-0.22
2018-11-27T02:26:46.727Z,-0.21
2018-11-27T02:29:50.882Z,-0.16
2018-11-27T02:32:55.191Z,-0.19
2018-11-27T02:35:59.158Z,-0.19
2018-11-27T02:39:03.304Z,-0.17
2018-11-27T02:42:07.272Z,-0.18
2018-11-27T02:45:12.494Z,-0.15
2018-11-27T02:48:16.456Z,-0.17
2018-11-27T02:51:20.424Z,-0.15
2018-11-27T02:54:24.387Z,-0.12
2018-11-27T02:57:28.358Z,-0.14
2018-11-27T03:00:32.396Z,-0.10
2018-11-27T03:03:36.504Z,-0.08
2018-11-27T03:06:40.471Z,-0.09
2018-11-27T03:09:44.618Z,-0.03
2018-11-27T03:12:48.759Z,-0.04
2018-11-27T03:15:52.731Z,-0.02
2018-11-27T03:18:56.865Z,0.07
2018-11-27T03:22:00.821Z,0.17
2018-11-27T03:25:06.713Z,0.13
2018-11-27T03:28:10.687Z,0.14
2018-11-27T03:31:14.833Z,0.26
2018-11-27T03:34:18.796Z,0.28
2018-11-27T03:37:22.763Z,0.23
2018-11-27T03:40:28.295Z,0.26
2018-11-27T03:43:32.455Z,0.31
2018-11-27T03:46:36.419Z,0.35
2018-11-27T03:49:40.384Z,0.31
2018-11-27T03:52:44.590Z,0.44
2018-11-27T03:55:48.872Z,0.42
2018-11-27T03:58:52.832Z,0.38
2018-11-27T04:01:56.804Z,0.37
2018-11-27T04:05:00.763Z,0.41
2018-11-27T04:08:05.296Z,0.42
2018-11-27T04:11:09.456Z,0.43
2018-11-27T04:14:13.405Z,0.39
2018-11-27T04:17:20.259Z,0.43
2018-11-27T04:20:24.276Z,0.44
2018-11-27T04:23:28.575Z,0.41
2018-11-27T04:26:32.543Z,0.47
2018-11-27T04:29:36.501Z,0.47
2018-11-27T04:32:40.725Z,0.47
2018-11-27T04:35:44.699Z,0.47
2018-11-27T04:38:48.846Z,0.50
2018-11-27T04:41:52.803Z,0.49
2018-11-27T04:44:56.958Z,0.50
2018-11-27T04:48:01.131Z,0.51
2018-11-27T04:51:05.631Z,0.57
2018-11-27T04:54:09.594Z,0.58
2018-11-27T04:57:13.550Z,0.63
2018-11-27T05:00:24.491Z,0.59
2018-11-27T05:03:28.630Z,0.65
2018-11-27T05:06:32.619Z,0.65
2018-11-27T05:09:36.581Z,0.66
2018-11-27T05:12:41.360Z,0.73
2018-11-27T05:15:45.614Z,0.81
2018-11-27T05:18:49.579Z,0.71
2018-11-27T05:21:53.554Z,0.73
2018-11-27T05:24:57.515Z,0.79
2018-11-27T05:28:01.484Z,0.76
2018-11-27T05:31:05.662Z,0.81
2018-11-27T05:34:09.643Z,0.82
2018-11-27T05:37:13.610Z,0.84
2018-11-27T05:40:18.726Z,0.96
2018-11-27T05:43:22.687Z,0.92
2018-11-27T05:46:26.656Z,0.89
2018-11-27T05:49:30.627Z,1.01
2018-11-27T05:52:34.595Z,0.98
2018-11-27T05:55:38.559Z,1.01
2018-11-27T05:58:42.515Z,0.97
2018-11-27T06:01:46.495Z,1.08
2018-11-27T06:04:50.467Z,1.03
2018-11-27T06:07:54.907Z,1.20
2018-11-27T06:10:59.023Z,1.25
2018-11-27T06:14:02.993Z,1.18
2018-11-27T06:17:07.147Z,1.22
2018-11-27T06:20:18.953Z,1.21
2018-11-27T06:23:22.907Z,1.27
2018-11-27T06:26:26.870Z,1.23
2018-11-27T06:29:30.831Z,1.19
2018-11-27T06:32:34.849Z,1.26
2018-11-27T06:35:41.338Z,1.39
2018-11-27T06:38:45.285Z,1.34
2018-11-27T06:41:49.254Z,1.41
2018-11-27T06:44:53.214Z,1.30
2018-11-27T06:47:57.519Z,1.28
2018-11-27T06:51:01.509Z,1.25
2018-11-27T06:54:06.642Z,1.24
2018-11-27T06:57:10.610Z,1.32
2018-11-27T07:00:23.575Z,1.25
2018-11-27T07:03:27.537Z,1.22
2018-11-27T07:06:31.490Z,1.24
2018-11-27T07:09:35.650Z,1.35
2018-11-27T07:12:39.618Z,1.36
2018-11-27T07:15:43.598Z,1.37
2018-11-27T07:18:47.607Z,1.48
2018-11-27T07:21:51.570Z,1.49
2018-11-27T07:24:55.546Z,1.38
2018-11-27T07:27:59.530Z,1.49
2018-11-27T07:31:03.495Z,1.44
2018-11-27T07:34:07.473Z,1.46
2018-11-27T07:37:11.430Z,1.52
2018-11-27T07:40:17.319Z,1.51
2018-11-27T07:43:21.619Z,1.48
2018-11-27T07:46:25.586Z,1.38
2018-11-27T07:49:29.543Z,1.39
2018-11-27T07:52:33.518Z,1.38
2018-11-27T07:55:37.507Z,1.36
2018-11-27T07:58:41.674Z,1.37
2018-11-27T08:01:45.647Z,1.36
2018-11-27T08:04:49.618Z,1.33
2018-11-27T08:07:54.579Z,1.35
2018-11-27T08:10:58.543Z,1.34
2018-11-27T08:14:02.502Z,1.31
2018-11-27T08:17:06.714Z,1.34
2018-11-27T08:20:14.098Z,1.35
2018-11-27T08:23:18.066Z,1.35
2018-11-27T08:26:22.026Z,1.36
2018-11-27T08:29:25.994Z,1.34
2018-11-27T08:32:29.967Z,1.37
2018-11-27T08:35:34.290Z,1.35
2018-11-27T08:38:38.254Z,1.35
2018-11-27T08:41:42.214Z,1.36
2018-11-27T08:44:46.191Z,1.36
2018-11-27T08:47:51.063Z,1.39
2018-11-27T08:50:55.214Z,1.37
2018-11-27T08:53:59.175Z,1.38
2018-11-27T08:57:03.139Z,1.40
2018-11-27T09:00:24.353Z,1.37
2018-11-27T09:03:28.331Z,1.42
2018-11-27T09:06:32.316Z,1.36
2018-11-27T09:09:36.287Z,1.47
2018-11-27T09:12:40.646Z,1.46
2018-11-27T09:15:44.616Z,1.52
2018-11-27T09:18:48.590Z,1.51
2018-11-27T09:21:52.571Z,1.57
2018-11-27T09:24:56.540Z,1.61
2018-11-27T09:28:00.506Z,1.61
2018-11-27T09:31:05.196Z,1.68
2018-11-27T09:34:09.175Z,1.73
2018-11-27T09:37:13.122Z,1.80
2018-11-27T09:40:18.640Z,1.85
2018-11-27T09:43:22.790Z,1.79
2018-11-27T09:46:26.763Z,1.84
2018-11-27T09:49:30.721Z,1.87
2018-11-27T09:52:34.700Z,1.88
2018-11-27T09:55:38.674Z,1.89
2018-11-27T09:58:42.826Z,1.91
2018-11-27T10:01:46.804Z,1.92
2018-11-27T10:04:50.774Z,1.94
2018-11-27T10:07:54.748Z,1.97
2018-11-27T10:10:58.693Z,2.00
2018-11-27T10:14:02.667Z,2.02
2018-11-27T10:17:06.634Z,2.01
2018-11-27T10:20:13.623Z,2.03
2018-11-27T10:23:17.775Z,2.09
2018-11-27T10:26:21.910Z,2.09
2018-11-27T10:29:25.882Z,2.13
2018-11-27T10:32:29.902Z,2.14
2018-11-27T10:35:42.915Z,2.20
2018-11-27T10:38:47.049Z,2.20
2018-11-27T10:41:51.023Z,2.22
2018-11-27T10:44:55.037Z,2.26
2018-11-27T10:47:59.178Z,2.29
2018-11-27T10:51:03.150Z,2.36
2018-11-27T10:54:07.462Z,2.38
2018-11-27T10:57:11.439Z,2.43
2018-11-27T11:00:27.631Z,2.45
2018-11-27T11:03:38.039Z,2.52
2018-11-27T11:06:41.998Z,2.51
2018-11-27T11:09:45.971Z,2.50
2018-11-27T11:12:49.941Z,2.49
2018-11-27T11:15:53.906Z,2.56
2018-11-27T11:18:58.123Z,2.55
2018-11-27T11:22:02.083Z,2.54
2018-11-27T11:25:10.301Z,2.54
2018-11-27T11:28:14.274Z,2.48
2018-11-27T11:31:18.263Z,2.48
2018-11-27T11:34:22.222Z,2.49
2018-11-27T11:37:26.370Z,2.47
2018-11-27T11:40:30.329Z,2.48
2018-11-27T11:43:34.333Z,2.50
2018-11-27T11:46:38.303Z,2.53
2018-11-27T11:49:42.278Z,2.56
2018-11-27T11:52:47.644Z,2.59
2018-11-27T11:55:51.623Z,2.60
2018-11-27T11:58:55.596Z,2.62
2018-11-27T12:01:59.550Z,2.63
2018-11-27T12:05:03.510Z,2.67
2018-11-27T12:08:08.565Z,2.76
2018-11-27T12:11:12.534Z,2.83
2018-11-27T12:14:16.503Z,2.81
2018-11-27T12:17:20.468Z,2.80
2018-11-27T12:20:24.448Z,2.81
2018-11-27T12:23:28.408Z,2.85
2018-11-27T12:26:32.559Z,2.86
2018-11-27T12:29:36.711Z,2.87
2018-11-27T12:32:40.698Z,2.90
2018-11-27T12:35:44.657Z,2.91
2018-11-27T12:38:48.641Z,2.93
2018-11-27T12:41:52.606Z,2.99
2018-11-27T12:44:56.599Z,3.00
2018-11-27T12:48:01.756Z,3.00
2018-11-27T12:51:07.017Z,2.98
2018-11-27T12:54:11.175Z,3.03
2018-11-27T12:57:15.147Z,3.04
2018-11-27T13:00:20.439Z,3.10
2018-11-27T13:03:24.587Z,3.09
2018-11-27T13:06:28.900Z,3.10
2018-11-27T13:09:33.038Z,3.12
2018-11-27T13:12:37.011Z,3.12
2018-11-27T13:15:41.917Z,3.16
2018-11-27T13:18:45.891Z,3.17
2018-11-27T13:21:49.862Z,3.17
2018-11-27T13:24:53.835Z,3.17
2018-11-27T13:27:57.806Z,3.18
2018-11-27T13:31:06.176Z,3.19
2018-11-27T13:34:12.842Z,3.23
2018-11-27T13:37:16.816Z,3.24
2018-11-27T13:40:21.031Z,3.25
2018-11-27T13:43:27.138Z,3.24
2018-11-27T13:46:31.291Z,3.24
2018-11-27T13:49:35.266Z,3.26
2018-11-27T13:52:39.426Z,3.31
2018-11-27T13:55:43.420Z,3.27
2018-11-27T13:58:47.570Z,3.28
2018-11-27T14:01:51.713Z,3.28
2018-11-27T14:04:55.671Z,3.29
2018-11-27T14:07:59.630Z,3.28
2018-11-27T14:11:03.614Z,3.28
2018-11-27T14:14:08.085Z,3.26
2018-11-27T14:17:12.076Z,3.29
2018-11-27T14:20:16.375Z,3.27
2018-11-27T14:23:20.522Z,3.26
2018-11-27T14:26:24.507Z,3.25
2018-11-27T14:29:28.495Z,3.25
2018-11-27T14:32:32.454Z,3.23
2018-11-27T14:35:36.419Z,3.23
2018-11-27T14:38:40.414Z,3.23
2018-11-27T14:41:44.387Z,3.21
2018-11-27T14:44:48.367Z,3.22
2018-11-27T14:47:54.769Z,3.22
2018-11-27T14:50:58.739Z,3.18
2018-11-27T14:54:02.758Z,3.16
2018-11-27T14:57:07.067Z,3.13
2018-11-27T15:00:18.898Z,3.14
2018-11-27T15:03:23.034Z,3.13
2018-11-27T15:06:27.014Z,3.13
2018-11-27T15:09:30.985Z,3.08
2018-11-27T15:12:34.945Z,3.10
2018-11-27T15:15:38.923Z,3.10
2018-11-27T15:18:43.244Z,3.08
2018-11-27T15:21:47.223Z,3.06
2018-11-27T15:24:51.371Z,3.09
2018-11-27T15:27:55.341Z,3.09
2018-11-27T15:30:59.499Z,3.04
2018-11-27T15:34:03.478Z,3.08
2018-11-27T15:37:07.438Z,3.00
2018-11-27T15:40:17.286Z,2.96
2018-11-27T15:43:21.247Z,2.97
2018-11-27T15:46:25.210Z,3.00
2018-11-27T15:49:29.182Z,2.96
2018-11-27T15:52:33.170Z,2.95
2018-11-27T15:55:39.064Z,2.92
2018-11-27T15:58:43.027Z,2.88
2018-11-27T16:01:47.034Z,2.85
2018-11-27T16:04:51.361Z,2.80
2018-11-27T16:07:55.326Z,2.83
2018-11-27T16:10:59.302Z,2.79
2018-11-27T16:14:03.613Z,2.77
2018-11-27T16:17:07.947Z,2.74
2018-11-27T16:20:14.988Z,2.72
2018-11-27T16:23:18.111Z,2.74
2018-11-27T16:26:22.259Z,2.70
2018-11-27T16:29:26.246Z,2.68
2018-11-27T16:32:30.218Z,2.67
2018-11-27T16:35:34.196Z,2.67
2018-11-27T16:38:40.166Z,2.66
2018-11-27T16:41:42.186Z,2.66
2018-11-27T16:44:46.134Z,2.61
2018-11-27T16:47:50.520Z,2.59
2018-11-27T16:50:54.478Z,2.63
2018-11-27T16:53:58.462Z,2.59
2018-11-27T16:57:02.466Z,2.58
2018-11-27T17:00:13.272Z,2.59
2018-11-27T17:03:17.239Z,2.57
2018-11-27T17:06:21.217Z,2.54
2018-11-27T17:09:25.365Z,2.55
2018-11-27T17:12:29.338Z,2.55
2018-11-27T17:15:33.311Z,2.52
2018-11-27T17:18:37.308Z,2.56
2018-11-27T17:21:41.278Z,2.48
2018-11-27T17:24:45.438Z,2.49
2018-11-27T17:27:49.951Z,2.47
2018-11-27T17:30:59.996Z,2.46
2018-11-27T17:34:09.958Z,2.48
2018-11-27T17:37:13.938Z,2.46
2018-11-27T17:40:17.918Z,2.44
2018-11-27T17:43:21.894Z,2.50
2018-11-27T17:46:25.867Z,2.47
2018-11-27T17:49:29.866Z,2.46
2018-11-27T17:52:33.867Z,2.43
2018-11-27T17:55:37.805Z,2.40
2018-11-27T17:58:41.780Z,2.43
2018-11-27T18:01:46.108Z,2.39
2018-11-27T18:04:50.083Z,2.40
2018-11-27T18:07:54.060Z,2.42
2018-11-27T18:10:58.220Z,2.36
2018-11-27T18:14:02.289Z,2.36
2018-11-27T18:17:06.225Z,2.36
2018-11-27T18:20:11.177Z,2.34
2018-11-27T18:23:15.320Z,2.35
2018-11-27T18:26:19.278Z,2.35
2018-11-27T18:29:23.287Z,2.37
2018-11-27T18:32:27.260Z,2.36
2018-11-27T18:35:31.218Z,2.38
2018-11-27T18:38:35.225Z,2.36
2018-11-27T18:41:39.462Z,2.34
2018-11-27T18:44:43.452Z,2.32
2018-11-27T18:47:47.511Z,2.28
2018-11-27T18:50:51.473Z,2.30
2018-11-27T18:53:55.423Z,2.28
2018-11-27T19:00:24.099Z,2.27
2018-11-27T19:03:28.096Z,2.27
2018-11-27T19:06:32.073Z,2.28
2018-11-27T19:09:36.058Z,2.22
2018-11-27T19:12:40.426Z,2.25
2018-11-27T19:15:45.966Z,2.26
2018-11-27T19:18:50.066Z,2.33
2018-11-27T19:21:54.052Z,2.27
2018-11-27T19:24:58.063Z,2.28
2018-11-27T19:28:02.373Z,2.27
2018-11-27T19:31:06.122Z,2.28
2018-11-27T19:34:10.106Z,2.24
2018-11-27T19:37:14.103Z,2.25
2018-11-27T19:40:18.895Z,2.22
2018-11-27T19:43:22.876Z,2.20
2018-11-27T19:46:26.849Z,2.25
2018-11-27T19:49:31.158Z,2.20
2018-11-27T19:52:35.176Z,2.24
2018-11-27T19:55:39.681Z,2.20
2018-11-27T19:58:50.197Z,2.20
2018-11-27T20:01:54.211Z,2.20
2018-11-27T20:04:58.180Z,2.23
2018-11-27T20:08:02.326Z,2.21
2018-11-27T20:11:06.489Z,2.24
2018-11-27T20:14:10.475Z,2.25
2018-11-27T20:17:14.524Z,2.26
2018-11-27T20:20:19.590Z,2.19
2018-11-27T20:23:23.571Z,2.19
2018-11-27T20:26:27.558Z,2.17
2018-11-27T20:29:31.875Z,2.16
2018-11-27T20:32:35.866Z,2.13
2018-11-27T20:35:40.026Z,2.10
2018-11-27T20:38:44.117Z,2.13
2018-11-27T20:41:48.075Z,2.18
2018-11-27T20:44:52.058Z,2.19
2018-11-27T20:47:58.170Z,2.17
2018-11-27T20:51:02.192Z,2.13
2018-11-27T20:54:06.192Z,2.11
2018-11-27T20:57:10.155Z,2.09
2018-11-27T21:00:17.027Z,2.08
2018-11-27T21:03:20.330Z,2.06
2018-11-27T21:06:24.718Z,2.05
2018-11-27T21:09:28.712Z,2.10
2018-11-27T21:12:32.662Z,2.11
2018-11-27T21:15:37.482Z,2.07
2018-11-27T21:18:48.111Z,2.04
2018-11-27T21:21:52.082Z,2.06
2018-11-27T21:24:56.230Z,2.02
2018-11-27T21:28:06.336Z,2.02
2018-11-27T21:31:10.595Z,2.01
2018-11-27T21:34:14.569Z,1.98
2018-11-27T21:37:18.869Z,1.92
2018-11-27T21:40:23.202Z,1.95
2018-11-27T21:43:27.183Z,1.91
2018-11-27T21:46:31.471Z,1.95
2018-11-27T21:49:35.623Z,1.91
2018-11-27T21:52:40.188Z,1.88
2018-11-27T21:55:44.153Z,1.88
2018-11-27T21:58:48.125Z,1.89
2018-11-27T22:01:52.090Z,1.85
2018-11-27T22:04:56.091Z,1.85
2018-11-27T22:08:00.057Z,1.85
2018-11-27T22:11:04.218Z,1.82
2018-11-27T22:14:08.183Z,1.79
2018-11-27T22:17:12.155Z,1.74
2018-11-27T22:20:21.071Z,1.73
2018-11-27T22:23:20.072Z,1.73
2018-11-27T22:26:24.042Z,1.67
2018-11-27T22:29:28.003Z,1.68
2018-11-27T22:32:31.966Z,1.66
2018-11-27T22:35:35.921Z,1.67
2018-11-27T22:38:40.222Z,1.64
2018-11-27T22:41:44.489Z,1.55
2018-11-27T22:44:48.705Z,1.50
2018-11-27T22:47:52.863Z,1.45
2018-11-27T22:50:56.831Z,1.37
2018-11-27T22:54:00.787Z,1.36
2018-11-27T22:57:04.767Z,1.36
2018-11-27T23:00:19.881Z,1.30
2018-11-27T23:03:23.838Z,1.18
2018-11-27T23:06:28.136Z,1.16
2018-11-27T23:09:32.287Z,1.15
2018-11-27T23:12:36.244Z,1.11
2018-11-27T23:15:40.454Z,0.99
2018-11-27T23:18:44.744Z,0.99
2018-11-27T23:21:48.711Z,0.97
2018-11-27T23:24:52.679Z,0.94
2018-11-27T23:27:56.651Z,0.88
2018-11-27T23:31:00.794Z,0.76
2018-11-27T23:34:04.754Z,0.68
2018-11-27T23:37:08.723Z,0.60
2018-11-27T23:40:13.846Z,0.58
2018-11-27T23:43:17.799Z,0.57
2018-11-27T23:46:21.758Z,0.50
2018-11-27T23:49:25.720Z,0.57
2018-11-27T23:52:29.695Z,0.50
2018-11-27T23:55:33.650Z,0.43
2018-11-27T23:58:37.724Z,0.36
